Nottingham, Maryland
Current Conditions -  °F | °C
As of 2:55 PM on Thursday 18 Dec 2014 (Local Time) from KMTN Reporting Station
Broken Clouds Broken Clouds  
Wind Chill: 30°   Ceiling: 4000
Heat Index: 39°   Visibility: 10mi
Dew Point: 27°   Wind: 17mph
Humidity: 61%   Direction: 300°WNW
Pressure: 30.09"   Gusts: NA
Location:  39.36°N, 76.45°W
Report Text: KMTN 181955Z 30015KT 10SM BKN040 04/M03 A3009
Loading
Personal Weather Stations






























Interactive Weather Map New forecast layout! Learn more

10-Day Weather Forecast

Advertisements
Track Severe Weather on mobile